createdAt,value
2022-09-07T00:02:00.103Z,101659.22
2022-09-07T00:06:07.376Z,101656.28
2022-09-07T00:10:09.193Z,101660.34
2022-09-07T00:14:10.673Z,101669.91
2022-09-07T00:18:12.200Z,101659.16
2022-09-07T00:22:13.663Z,101656.19
2022-09-07T00:26:24.566Z,101654.69
2022-09-07T00:30:27.107Z,101647.66
2022-09-07T00:34:28.573Z,101645.41
2022-09-07T00:38:30.301Z,101625.88
2022-09-07T00:42:31.859Z,101625.03
2022-09-07T00:46:33.330Z,101612.56
2022-09-07T00:50:44.204Z,101610.59
2022-09-07T00:54:53.520Z,101607.00
2022-09-07T00:58:56.162Z,101613.50
2022-09-07T01:02:59.938Z,101610.88
2022-09-07T01:07:03.167Z,101601.28
2022-09-07T01:11:05.093Z,101603.75
2022-09-07T01:15:07.178Z,101618.25
2022-09-07T01:19:20.359Z,101614.59
2022-09-07T01:23:55.596Z,101619.94
2022-09-07T01:28:18.916Z,101619.56
2022-09-07T01:32:35.169Z,101615.25
2022-09-07T01:37:14.125Z,101613.28
2022-09-07T01:41:42.734Z,101612.41
2022-09-07T01:45:45.717Z,101621.41
2022-09-07T01:49:54.866Z,101626.34
2022-09-07T01:54:10.654Z,101620.88
2022-09-07T01:58:20.083Z,101602.66
2022-09-07T02:02:24.033Z,101597.47
2022-09-07T02:07:15.884Z,101601.81
2022-09-07T02:11:21.639Z,101604.81
2022-09-07T02:15:32.601Z,101605.00
2022-09-07T02:19:45.026Z,101595.06
2022-09-07T02:23:54.979Z,101586.00
2022-09-07T02:28:03.521Z,101582.78
2022-09-07T02:32:05.315Z,101571.44
2022-09-07T02:36:08.083Z,101571.28
2022-09-07T02:40:11.049Z,101565.59
2022-09-07T02:44:18.382Z,101575.84
2022-09-07T02:48:38.789Z,101571.75
2022-09-07T02:52:50.251Z,101564.25
2022-09-07T02:56:54.411Z,101563.69
2022-09-07T03:01:07.294Z,101555.91
2022-09-07T03:05:21.848Z,101556.69
2022-09-07T03:09:28.546Z,101543.59
2022-09-07T03:13:30.533Z,101546.00
2022-09-07T03:17:32.170Z,101538.84
2022-09-07T03:21:33.727Z,101532.16
2022-09-07T03:25:35.241Z,101535.28
2022-09-07T03:29:40.251Z,101538.16
2022-09-07T03:33:43.444Z,101541.44
2022-09-07T03:37:44.911Z,101545.41
2022-09-07T03:41:46.677Z,101528.19
2022-09-07T03:45:48.277Z,101536.88
2022-09-07T03:49:51.255Z,101542.78
2022-09-07T03:53:52.772Z,101527.94
2022-09-07T03:57:54.228Z,101527.56
2022-09-07T04:01:55.803Z,101520.72
2022-09-07T04:06:01.274Z,101516.50
2022-09-07T04:10:03.234Z,101523.25
2022-09-07T04:14:04.845Z,101519.16
2022-09-07T04:18:06.330Z,101515.81
2022-09-07T04:22:07.791Z,101509.13
2022-09-07T04:26:18.481Z,101504.53
2022-09-07T04:30:20.019Z,101516.88
2022-09-07T04:34:21.537Z,101506.06
2022-09-07T04:38:23.001Z,101499.66
2022-09-07T04:42:24.470Z,101496.28
2022-09-07T04:46:28.299Z,101494.28
2022-09-07T04:50:29.813Z,101494.66
2022-09-07T04:54:32.707Z,101494.38
2022-09-07T04:58:34.181Z,101506.91
2022-09-07T05:02:36.328Z,101509.88
2022-09-07T05:06:37.906Z,101512.72
2022-09-07T05:10:39.432Z,101511.59
2022-09-07T05:14:40.896Z,101509.84
2022-09-07T05:18:42.776Z,101502.47
2022-09-07T05:22:44.249Z,101507.81
2022-09-07T05:26:45.766Z,101510.41
2022-09-07T05:35:09.975Z,101494.81
2022-09-07T05:39:11.551Z,101489.31
2022-09-07T05:43:13.027Z,101496.91
2022-09-07T05:47:14.533Z,101486.16
2022-09-07T05:51:16.394Z,101484.13
2022-09-07T05:55:29.433Z,101475.63
2022-09-07T05:59:32.110Z,101480.38
2022-09-07T06:03:35.934Z,101476.25
2022-09-07T06:07:37.837Z,101475.59
2022-09-07T06:11:39.400Z,101476.06
2022-09-07T06:15:41.175Z,101482.97
2022-09-07T06:19:42.619Z,101482.44
2022-09-07T06:23:45.086Z,101482.47
2022-09-07T06:27:48.581Z,101479.50
2022-09-07T06:36:16.514Z,101480.09
2022-09-07T06:40:17.982Z,101477.75
2022-09-07T06:44:19.750Z,101482.88
2022-09-07T06:48:21.803Z,101476.56
2022-09-07T06:52:23.260Z,101477.84
2022-09-07T06:56:27.287Z,101469.94
2022-09-07T07:00:28.784Z,101476.16
2022-09-07T07:04:30.680Z,101487.38
2022-09-07T07:08:32.456Z,101492.81
2022-09-07T07:16:37.197Z,101500.66
2022-09-07T07:20:40.762Z,101517.69
2022-09-07T07:24:42.239Z,101507.88
2022-09-07T07:29:04.779Z,101510.28
2022-09-07T07:33:08.117Z,101507.56
2022-09-07T07:37:09.587Z,101513.19
2022-09-07T07:50:30.792Z,101495.53
2022-09-07T07:54:16.688Z,101497.97
2022-09-07T07:58:18.718Z,101495.72
2022-09-07T08:02:20.348Z,101504.09
2022-09-07T08:06:21.945Z,101501.59
2022-09-07T08:10:24.963Z,101508.28
2022-09-07T08:14:26.356Z,101514.69
2022-09-07T08:18:28.026Z,101506.47
2022-09-07T08:22:32.980Z,101496.84
2022-09-07T08:26:36.183Z,101484.59
2022-09-07T08:30:39.925Z,101484.34
2022-09-07T08:34:41.420Z,101492.91
2022-09-07T08:38:43.698Z,101500.19
2022-09-07T08:43:27.004Z,101499.25
2022-09-07T08:47:40.145Z,101490.28
2022-09-07T08:51:49.229Z,101492.47
2022-09-07T08:55:56.368Z,101495.13
2022-09-07T09:00:06.789Z,101493.25
2022-09-07T09:04:27.534Z,101497.63
2022-09-07T09:09:07.883Z,101500.22
2022-09-07T09:13:09.503Z,101493.00
2022-09-07T09:17:22.132Z,101493.00
2022-09-07T09:21:23.611Z,101485.31
2022-09-07T09:25:36.927Z,101477.06
2022-09-07T09:29:38.456Z,101468.28
2022-09-07T09:33:39.883Z,101462.59
2022-09-07T09:37:43.584Z,101454.56
2022-09-07T09:41:45.089Z,101453.63
2022-09-07T09:54:44.619Z,101429.31
2022-09-07T10:07:36.442Z,101393.66
2022-09-07T10:12:06.658Z,101389.28
2022-09-07T10:16:11.351Z,101380.63
2022-09-07T10:20:12.827Z,101375.22
2022-09-07T10:24:15.994Z,101370.03
2022-09-07T10:28:22.848Z,101368.84
2022-09-07T10:32:39.811Z,101363.09
2022-09-07T10:36:54.203Z,101359.81
2022-09-07T10:41:02.622Z,101358.13
2022-09-07T10:45:21.003Z,101370.25
2022-09-07T10:54:33.112Z,101377.41
2022-09-07T10:59:03.984Z,101383.47
2022-09-07T11:03:27.349Z,101386.41
2022-09-07T11:07:52.706Z,101390.44
2022-09-07T11:12:03.441Z,101390.13
2022-09-07T11:16:50.519Z,101391.03
2022-09-07T11:20:45.237Z,101404.84
2022-09-07T11:29:30.693Z,101408.91
2022-09-07T11:33:39.759Z,101412.84
2022-09-07T11:37:59.467Z,101404.91
2022-09-07T11:46:55.684Z,101407.94
2022-09-07T11:51:38.717Z,101389.50
2022-09-07T11:55:45.033Z,101403.03
2022-09-07T12:00:20.278Z,101403.16
2022-09-07T12:04:39.932Z,101387.28
2022-09-07T12:09:01.615Z,101371.59
2022-09-07T12:13:26.261Z,101371.50
2022-09-07T12:17:37.478Z,101353.25
2022-09-07T12:21:50.274Z,101350.19
2022-09-07T12:25:52.372Z,101352.31
2022-09-07T12:29:56.759Z,101344.25
2022-09-07T12:34:32.081Z,101350.09
2022-09-07T12:38:33.960Z,101347.38
2022-09-07T12:42:37.283Z,101330.59
2022-09-07T12:46:39.151Z,101330.88
2022-09-07T12:51:04.312Z,101311.78
2022-09-07T12:55:28.115Z,101312.06
2022-09-07T12:59:36.443Z,101309.22
2022-09-07T13:03:53.683Z,101308.75
2022-09-07T13:08:28.274Z,101310.94
2022-09-07T13:17:46.460Z,101311.97
2022-09-07T13:21:50.606Z,101301.75
2022-09-07T13:25:54.971Z,101299.84
2022-09-07T13:30:21.242Z,101306.81
2022-09-07T13:34:34.832Z,101306.75
2022-09-07T13:38:36.708Z,101308.38
2022-09-07T13:42:38.563Z,101304.91
2022-09-07T13:47:02.444Z,101300.44
2022-09-07T13:51:29.159Z,101290.69
2022-09-07T13:55:52.723Z,101289.19
2022-09-07T13:59:55.386Z,101286.88
2022-09-07T14:04:02.221Z,101301.22
2022-09-07T14:08:03.647Z,101310.34
2022-09-07T14:12:15.162Z,101296.34
2022-09-07T14:16:16.633Z,101298.47
2022-09-07T14:20:18.900Z,101302.53
2022-09-07T14:24:31.969Z,101292.59
2022-09-07T14:28:38.053Z,101287.31
2022-09-07T14:32:40.056Z,101286.44
2022-09-07T14:36:46.381Z,101287.47
2022-09-07T14:40:48.679Z,101286.97
2022-09-07T14:44:51.445Z,101300.75
2022-09-07T14:48:55.719Z,101288.41
2022-09-07T14:57:19.231Z,101280.53
2022-09-07T15:01:38.949Z,101281.97
2022-09-07T15:05:48.450Z,101284.34
2022-09-07T15:09:49.857Z,101277.47
2022-09-07T15:13:56.360Z,101276.41
2022-09-07T15:18:06.097Z,101265.47
2022-09-07T15:22:13.426Z,101267.19
2022-09-07T15:30:36.685Z,101265.16
2022-09-07T15:34:38.131Z,101271.44
2022-09-07T15:43:03.025Z,101263.09
2022-09-07T15:55:55.289Z,101256.25
2022-09-07T15:59:56.810Z,101256.88
2022-09-07T16:03:59.198Z,101259.88
2022-09-07T16:21:15.329Z,101275.50
2022-09-07T16:25:16.925Z,101272.50
2022-09-07T16:29:18.389Z,101263.78
2022-09-07T16:33:19.883Z,101260.31
2022-09-07T16:37:21.408Z,101264.59
2022-09-07T16:41:29.000Z,101264.88
2022-09-07T16:49:52.042Z,101256.22
2022-09-07T16:53:55.779Z,101250.91
2022-09-07T17:02:18.603Z,101253.88
2022-09-07T17:06:21.953Z,101248.69
2022-09-07T17:10:23.456Z,101250.09
2022-09-07T17:14:24.907Z,101240.38
2022-09-07T17:22:47.791Z,101237.13
2022-09-07T17:26:49.283Z,101236.91
2022-09-07T17:30:50.682Z,101241.69
2022-09-07T17:34:52.143Z,101247.09
2022-09-07T17:47:36.633Z,101252.53
2022-09-07T17:51:38.113Z,101260.19
2022-09-07T17:55:39.564Z,101259.50
2022-09-07T18:04:11.584Z,101263.22
2022-09-07T18:08:13.593Z,101275.81
2022-09-07T18:12:15.011Z,101269.63
2022-09-07T18:16:20.470Z,101258.47
2022-09-07T18:20:24.056Z,101261.16
2022-09-07T18:24:25.560Z,101268.97
2022-09-07T18:32:48.650Z,101259.50
2022-09-07T18:36:50.157Z,101270.69
2022-09-07T18:41:00.494Z,101270.50
2022-09-07T18:49:23.526Z,101275.03
2022-09-07T18:53:26.670Z,101281.78
2022-09-07T18:57:28.276Z,101280.16
2022-09-07T19:01:32.006Z,101281.44
2022-09-07T19:09:55.289Z,101291.69
2022-09-07T19:13:57.686Z,101293.16
2022-09-07T19:17:59.221Z,101282.41
2022-09-07T19:22:02.354Z,101285.56
2022-09-07T19:26:05.975Z,101296.41
2022-09-07T19:30:08.120Z,101289.69
2022-09-07T19:34:10.368Z,101289.41
2022-09-07T19:38:12.630Z,101289.94
2022-09-07T19:42:14.488Z,101287.34
2022-09-07T19:46:21.417Z,101285.75
2022-09-07T19:50:25.945Z,101282.59
2022-09-07T19:54:27.377Z,101277.22
2022-09-07T19:58:28.881Z,101278.66
2022-09-07T20:02:30.331Z,101268.03
2022-09-07T20:06:33.299Z,101267.59
2022-09-07T20:10:36.009Z,101265.75
2022-09-07T20:14:37.475Z,101264.72
2022-09-07T20:18:39.382Z,101263.06
2022-09-07T20:22:40.844Z,101266.72
2022-09-07T20:26:42.320Z,101270.56
2022-09-07T20:30:44.088Z,101265.19
2022-09-07T20:34:46.321Z,101265.25
2022-09-07T20:38:53.079Z,101262.09
2022-09-07T20:42:54.520Z,101265.75
2022-09-07T20:46:56.024Z,101265.03
2022-09-07T20:51:03.698Z,101264.47
2022-09-07T20:55:05.881Z,101272.25
2022-09-07T20:59:07.300Z,101268.03
2022-09-07T21:03:10.115Z,101270.72
2022-09-07T21:07:11.745Z,101269.38
2022-09-07T21:11:19.266Z,101269.09
2022-09-07T21:15:20.713Z,101267.94
2022-09-07T21:19:22.255Z,101258.75
2022-09-07T21:23:24.313Z,101263.09
2022-09-07T21:27:25.703Z,101261.41
2022-09-07T21:31:29.012Z,101263.06
2022-09-07T21:35:33.489Z,101252.72
2022-09-07T21:39:35.710Z,101241.03
2022-09-07T21:43:38.015Z,101237.88
2022-09-07T21:47:39.432Z,101238.50
2022-09-07T21:51:40.848Z,101232.47
2022-09-07T21:55:42.235Z,101230.91
2022-09-07T21:59:43.654Z,101232.19
2022-09-07T22:03:47.332Z,101228.56
2022-09-07T22:07:48.964Z,101227.09
2022-09-07T22:11:50.500Z,101225.59
2022-09-07T22:15:51.982Z,101219.31
2022-09-07T22:19:53.393Z,101214.47
2022-09-07T22:23:57.462Z,101221.44
2022-09-07T22:27:59.245Z,101208.81
2022-09-07T22:32:00.797Z,101219.75
2022-09-07T22:36:21.821Z,101213.75
2022-09-07T22:40:23.236Z,101208.59
2022-09-07T22:44:26.725Z,101212.59
2022-09-07T22:48:29.109Z,101218.16
2022-09-07T22:52:30.573Z,101205.53
2022-09-07T22:56:33.320Z,101210.09
2022-09-07T23:00:36.318Z,101190.22
2022-09-07T23:04:37.821Z,101202.13
2022-09-07T23:08:39.787Z,101194.22
2022-09-07T23:12:41.226Z,101183.28
2022-09-07T23:16:43.680Z,101187.53
2022-09-07T23:20:46.255Z,101187.41
2022-09-07T23:24:48.988Z,101169.69
2022-09-07T23:28:55.187Z,101172.22
2022-09-07T23:32:56.755Z,101177.56
2022-09-07T23:36:58.214Z,101173.63
2022-09-07T23:41:00.420Z,101175.31
2022-09-07T23:45:01.879Z,101166.16
2022-09-07T23:49:03.396Z,101165.69
2022-09-07T23:53:04.869Z,101155.84
2022-09-07T23:57:06.282Z,101151.41
